Terminal Aerodrome Forecast
Issued by NWS

Home | Current Version | Previous Version | Text Only | Print | Product List | Glossary On
Versions: 1 2 3 4 5 6 7 8 9 10 11 12 13 14 15 16 17 18 19 20 21 22 23 24 25 26 27 28
000
FTUS45 KBOU 011122
TAFAPA
TAF
KAPA 011122Z 0112/0212 34011KT P6SM VCSH SCT012 OVC025
      TEMPO 0112/0116 -SN BKN010
     FM011800 03012KT P6SM -SHSNRA SCT012 OVC025
      TEMPO 0120/0124 4SM -SHSNRA BKN010
     FM020300 06008KT P6SM VCSH SCT015 BKN025 OVC050
     FM020500 16005KT P6SM SCT025 BKN050
     FM021000 19006KT P6SM SCT050 BKN090=

USA.gov is the U.S. government's official web portal to all federal, state and local government web resources and services.